| time (UTC) | temp C | wind direction | speed KPH | gust KPH | rain 1hr cm | rain 24hr cm | rain mn cm | humidity % | barometer mb |
| 20260906210105 | 25 | 57 | 8.0 | 17.7 | 0.00 | 0.00 | 0.00 | 77 | 1014.5 |
| 20260906204644 | 26 | 84 | 11.3 | 20.9 | 0.00 | 0.00 | 0.00 | 76 | 1013.7 |
| 20260906203108 | 26 | 87 | 11.3 | 25.7 | 0.00 | 0.00 | 0.00 | 77 | 1013.7 |
| 20260906201646 | 26 | 83 | 14.5 | 29.0 | 0.00 | 0.00 | 0.00 | 75 | 1013.5 |
| 20260906200105 | 25 | 90 | 14.5 | 29.0 | 0.00 | 0.00 | 0.00 | 77 | 1013.8 |
| 20260906194607 | 26 | 119 | 22.5 | 32.2 | 0.00 | 0.00 | 0.00 | 78 | 1014.0 |
| 20260906193110 | 26 | 116 | 19.3 | 30.6 | 0.00 | 0.00 | 0.00 | 74 | 1014.4 |
| 20260906191622 | 26 | 153 | 24.1 | 33.8 | 0.00 | 0.00 | 0.00 | 76 | 1014.6 |
| 20260906190109 | 26 | 130 | 12.9 | 22.5 | 0.00 | 0.00 | 0.00 | 77 | 1014.4 |
| 20260906184609 | 25 | 122 | 11.3 | 20.9 | 0.00 | 0.00 | 0.00 | 78 | 1014.1 |
| 20260906183104 | 26 | 118 | 16.1 | 29.0 | 0.00 | 0.00 | 0.00 | 76 | 1014.0 |
| 20260906181607 | 26 | 138 | 19.3 | 29.0 | 0.00 | 0.00 | 0.00 | 77 | 1014.4 |
| 20260906180104 | 25 | 136 | 16.1 | 32.2 | 0.00 | 0.00 | 0.00 | 79 | 1014.9 |
| 20260906174617 | 25 | 108 | 14.5 | 29.0 | 0.00 | 0.00 | 0.00 | 79 | 1014.9 |
| 20260906173109 | 25 | 101 | 16.1 | 30.6 | 0.00 | 0.00 | 0.00 | 77 | 1015.0 |
| 20260906171606 | 25 | 87 | 17.7 | 30.6 | 0.00 | 0.00 | 0.00 | 77 | 1015.0 |
| 20260906170114 | 25 | 53 | 17.7 | 32.2 | 0.00 | 0.00 | 0.00 | 79 | 1015.5 |
| 20260906164604 | 24 | 87 | 14.5 | 27.4 | 0.00 | 0.00 | 0.00 | 81 | 1015.6 |
| 20260906163105 | 23 | 97 | 14.5 | 25.7 | 0.00 | 0.00 | 0.00 | 82 | 1015.8 |
| 20260906161607 | 23 | 71 | 16.1 | 32.2 | 0.00 | 0.00 | 0.00 | 84 | 1015.5 |
| 20260906160107 | 22 | 98 | 16.1 | 32.2 | 0.00 | 0.00 | 0.00 | 86 | 1015.3 |
| 20260906154614 | 22 | 97 | 17.7 | 32.2 | 0.00 | 0.00 | 0.00 | 85 | 1015.5 |
| 20260906153125 | 22 | 119 | 16.1 | 29.0 | 0.00 | 0.00 | 0.00 | 86 | 1016.0 |
| 20260906151606 | 21 | 100 | 14.5 | 25.7 | 0.00 | 0.00 | 0.00 | 87 | 1016.5 |
| 20260906150106 | 21 | 88 | 12.9 | 24.1 | 0.00 | 0.00 | 0.00 | 87 | 1016.5 |
| 20260906144617 | 21 | 97 | 12.9 | 20.9 | 0.00 | 0.00 | 0.00 | 89 | 1016.5 |
| 20260906143108 | 20 | 104 | 11.3 | 20.9 | 0.00 | 0.00 | 0.00 | 91 | 1016.6 |
| 20260906141618 | 20 | 102 | 9.7 | 19.3 | 0.00 | 0.00 | 0.00 | 92 | 1016.6 |
| 20260906140111 | 20 | 88 | 11.3 | 22.5 | 0.00 | 0.00 | 0.00 | 93 | 1016.6 |
| 20260906134634 | 19 | 88 | 9.7 | 22.5 | 0.00 | 0.00 | 0.00 | 94 | 1016.2 |
| 20260906133109 | 19 | 89 | 11.3 | 24.1 | 0.00 | 0.00 | 0.00 | 94 | 1016.2 |
| 20260906131606 | 18 | 87 | 9.7 | 17.7 | 0.00 | 0.00 | 0.00 | 95 | 1016.3 |
| 20260906130108 | 18 | 85 | 8.0 | 12.9 | 0.00 | 0.00 | 0.00 | 95 | 1016.5 |
| 20260906124610 | 18 | 85 | 6.4 | 14.5 | 0.00 | 0.03 | 0.00 | 95 | 1016.6 |
| 20260906123113 | 17 | 85 | 6.4 | 16.1 | 0.00 | 0.03 | 0.00 | 94 | 1016.4 |
| 20260906121607 | 17 | 85 | 9.7 | 17.7 | 0.00 | 0.03 | 0.00 | 94 | 1016.3 |
| 20260906120109 | 17 | 85 | 11.3 | 16.1 | 0.00 | 0.03 | 0.00 | 93 | 1016.5 |
| 20260906114629 | 18 | 85 | 8.0 | 14.5 | 0.00 | 0.20 | 0.00 | 93 | 1016.5 |
| 20260906113104 | 18 | 85 | 9.7 | 16.1 | 0.00 | 0.20 | 0.00 | 92 | 1016.4 |
| 20260906111626 | 20 | 85 | 4.8 | 16.1 | 0.00 | 0.20 | 0.00 | 92 | 1016.0 |
| 20260906104607 | 20 | 122 | 4.8 | 11.3 | 0.00 | 1.45 | 0.00 | 92 | 1015.6 |
| 20260906103111 | 20 | 122 | 6.4 | 11.3 | 0.00 | 1.45 | 0.00 | 92 | 1015.8 |
| 20260906101604 | 20 | 122 | 4.8 | 12.9 | 0.00 | 1.45 | 0.00 | 93 | 1015.8 |
| 20260906094604 | 20 | 122 | 4.8 | 11.3 | 0.00 | 2.26 | 0.00 | 93 | 1015.8 |
| 20260906093109 | 20 | 122 | 4.8 | 11.3 | 0.00 | 2.26 | 0.00 | 93 | 1015.5 |
| 20260906091612 | 20 | 122 | 6.4 | 14.5 | 0.00 | 2.26 | 0.00 | 92 | 1015.5 |
| 20260906090116 | 19 | 121 | 6.4 | 12.9 | 0.00 | 2.26 | 0.00 | 92 | 1015.7 |
| 20260906084613 | 19 | 121 | 4.8 | 12.9 | 0.00 | 2.26 | 0.00 | 91 | 1015.8 |
| 20260906083106 | 19 | 121 | 4.8 | 12.9 | 0.00 | 2.26 | 0.00 | 91 | 1016.0 |
| 20260906081609 | 19 | 121 | 4.8 | 12.9 | 0.00 | 2.26 | 0.00 | 91 | 1016.0 |
| 20260906080104 | 19 | 121 | 4.8 | 9.7 | 0.00 | 2.26 | 0.00 | 91 | 1016.1 |
| 20260906074612 | 19 | 121 | 3.2 | 9.7 | 0.00 | 2.26 | 0.00 | 91 | 1016.2 |
| 20260906073110 | 18 | 121 | 4.8 | 12.9 | 0.00 | 2.26 | 0.00 | 91 | 1016.3 |
| 20260906071609 | 18 | 121 | 4.8 | 9.7 | 0.00 | 2.26 | 0.00 | 91 | 1016.5 |
| 20260906070135 | 18 | 121 | 3.2 | 11.3 | 0.00 | 2.26 | 0.00 | 91 | 1016.4 |
| 20260906064602 | 18 | 121 | 4.8 | 11.3 | 0.00 | 2.26 | 0.00 | 91 | 1016.3 |
| 20260906063108 | 18 | 121 | 3.2 | 11.3 | 0.00 | 2.26 | 0.00 | 90 | 1016.2 |
| 20260906061635 | 18 | 121 | 3.2 | 11.3 | 0.00 | 2.26 | 0.00 | 89 | 1016.4 |
| 20260906060109 | 18 | 121 | 3.2 | 6.4 | 0.00 | 2.26 | 0.00 | 89 | 1016.2 |
| 20260906054606 | 18 | 121 | 3.2 | 11.3 | 0.00 | 2.26 | 0.00 | 88 | 1016.0 |
| 20260906053104 | 18 | 121 | 8.0 | 14.5 | 0.00 | 2.26 | 0.00 | 88 | 1016.1 |
| 20260906051606 | 18 | 121 | 6.4 | 12.9 | 0.00 | 2.26 | 0.00 | 88 | 1016.0 |
| 20260906050116 | 18 | 121 | 3.2 | 9.7 | 0.00 | 2.26 | 0.00 | 88 | 1015.8 |
| 20260906044603 | 19 | 121 | 3.2 | 9.7 | 0.00 | 2.26 | 2.26 | 88 | 1015.9 |
| 20260906043112 | 19 | 121 | 1.6 | 11.3 | 0.00 | 2.26 | 2.26 | 88 | 1016.0 |
| 20260906041608 | 19 | 121 | 3.2 | 9.7 | 0.00 | 2.26 | 2.26 | 87 | 1016.0 |
| 20260906040120 | 19 | 121 | 3.2 | 12.9 | 0.00 | 2.26 | 2.26 | 87 | 1016.1 |
| 20260906034605 | 19 | 121 | 4.8 | 12.9 | 0.00 | 2.26 | 2.26 | 88 | 1016.3 |
| 20260906033104 | 19 | 121 | 3.2 | 11.3 | 0.00 | 2.26 | 2.26 | 88 | 1016.3 |
| 20260906031612 | 19 | 121 | 4.8 | 12.9 | 0.00 | 2.26 | 2.26 | 89 | 1016.2 |
| 20260906030110 | 19 | 121 | 3.2 | 12.9 | 0.00 | 2.26 | 2.26 | 90 | 1016.1 |
| 20260906024607 | 19 | 121 | 1.6 | 9.7 | 0.00 | 2.26 | 2.26 | 89 | 1016.4 |
| 20260906023132 | 20 | 122 | 3.2 | 12.9 | 0.00 | 2.26 | 2.26 | 88 | 1016.2 |
| 20260906021608 | 20 | 122 | 4.8 | 9.7 | 0.00 | 2.26 | 2.26 | 88 | 1016.1 |
| 20260906020107 | 20 | 122 | 4.8 | 12.9 | 0.00 | 2.26 | 2.26 | 87 | 1016.1 |
| 20260906014629 | 20 | 122 | 1.6 | 6.4 | 0.00 | 2.26 | 2.26 | 87 | 1015.8 |
| 20260906013107 | 20 | 122 | 1.6 | 9.7 | 0.00 | 2.26 | 2.26 | 86 | 1015.7 |
| 20260906011605 | 21 | 122 | 6.4 | 12.9 | 0.00 | 2.26 | 2.26 | 84 | 1015.8 |
| 20260906010107 | 21 | 122 | 6.4 | 11.3 | 0.00 | 2.26 | 2.26 | 82 | 1015.6 |
| 20260906004614 | 22 | 122 | 4.8 | 12.9 | 0.00 | 2.26 | 2.26 | 80 | 1015.4 |
| 20260906003109 | 22 | 122 | 8.0 | 17.7 | 0.00 | 2.26 | 2.26 | 77 | 1015.3 |
| 20260906001605 | 23 | 122 | 9.7 | 22.5 | 0.00 | 2.26 | 2.26 | 74 | 1015.1 |
| 20260906000111 | 23 | 121 | 12.9 | 20.9 | 0.00 | 2.26 | 2.26 | 74 | 1015.0 |
| 20260905234606 | 23 | 115 | 6.4 | 16.1 | 0.00 | 2.26 | 2.26 | 73 | 1014.7 |
| 20260905233111 | 23 | 116 | 4.8 | 12.9 | 0.00 | 2.26 | 2.26 | 76 | 1014.9 |
| 20260905231607 | 23 | 117 | 11.3 | 17.7 | 0.00 | 2.26 | 2.26 | 78 | 1014.9 |
| 20260905230110 | 23 | 117 | 6.4 | 12.9 | 0.00 | 2.26 | 2.26 | 79 | 1015.0 |
| 20260905224609 | 23 | 117 | 4.8 | 14.5 | 0.00 | 2.26 | 2.26 | 78 | 1014.9 |
| 20260905223107 | 22 | 117 | 6.4 | 14.5 | 0.00 | 2.26 | 2.26 | 81 | 1015.0 |
| 20260905221608 | 22 | 117 | 8.0 | 16.1 | 0.00 | 2.26 | 2.26 | 82 | 1015.1 |
| 20260905220123 | 23 | 117 | 1.6 | 9.7 | 0.00 | 2.26 | 2.26 | 82 | 1014.8 |
| 20260905214606 | 22 | 117 | 0.0 | 9.7 | 0.00 | 2.26 | 2.26 | 82 | 1014.9 |
| 20260905213108 | 22 | 117 | 4.8 | 9.7 | 0.00 | 2.26 | 2.26 | 77 | 1014.7 |
| 20260905211610 | 23 | 0 | 0.0 | 3.2 | 0.00 | 2.26 | 2.26 | 75 | 1014.6 |